Time;durP1;ratioP1;P1;durP2;ratioP2;P2;SDS_P1;SDS_P2;PMS_P1;PMS_P2;Temp;Humidity;BMP_temperature;BMP_pressure;BME280_temperature;BME280_humidity;BME280_pressure;Samples;Min_cycle;Max_cycle;Signal;HPM_P1;HPM_P2
2022/08/28 00:00:42;;;;;;;;;;;;;;;28.99;42.88;98758.81;4467502;32;34582;-83
2022/08/28 00:03:10;;;;;;;;;;;;;;;29.31;42.55;98746.72;4460560;32;35057;-83
2022/08/28 00:05:41;;;;;;;;;;;;;;;28.36;44.93;98763.03;4438177;32;33826;-85
2022/08/28 00:08:09;;;;;;;;;;;;;;;28.60;44.72;98760.53;4452015;32;34218;-82
2022/08/28 00:10:38;;;;;;;;;;;;;;;28.05;45.92;98743.72;4451889;32;34201;-86
2022/08/28 00:13:07;;;;;;;;;;;;;;;28.46;45.17;98733.97;4444022;32;34460;-82
2022/08/28 00:15:36;;;;;;;;;;;;;;;28.09;46.08;98729.25;4467381;32;33407;-83
2022/08/28 00:18:07;;;;;;;;;;;;;;;28.97;43.90;98737.53;4467672;32;33981;-88
2022/08/28 00:20:36;;;;;;;;;;;;;;;28.47;45.10;98749.00;4483235;32;34100;-85
2022/08/28 00:23:07;;;;;;;;;;;;;;;28.58;44.65;98757.13;4476154;32;35208;-84
2022/08/28 00:25:34;;;;;;;;;;;;;;;28.57;44.54;98758.97;4467446;32;33397;-87
2022/08/28 00:28:02;;;;;;;;;;;;;;;28.57;44.20;98761.63;4467361;32;34218;-84
2022/08/28 00:30:37;;;;;;;;;;;;;;;27.96;45.50;98757.66;4466894;32;35064;-84
2022/08/28 00:33:07;;;;;;;;;;;;;;;27.39;46.86;98763.06;4461478;32;35364;-88
2022/08/28 00:35:39;;;;;;;;;;;;;;;27.13;47.30;98765.53;4451682;32;33617;-83
2022/08/28 00:38:08;;;;;;;;;;;;;;;27.68;45.81;98763.00;4437800;32;33933;-87
2022/08/28 00:40:35;;;;;;;;;;;;;;;28.01;44.77;98762.69;4437638;32;34405;-81
2022/08/28 00:43:04;;;;;;;;;;;;;;;27.88;44.79;98757.28;4456728;32;34325;-88
2022/08/28 00:45:32;;;;;;;;;;;;;;;27.99;44.56;98752.09;4443066;32;33546;-86
2022/08/28 00:48:05;;;;;;;;;;;;;;;26.65;47.64;98753.34;4441857;32;34246;-86
2022/08/28 00:52:04;;;;;;;;;;;;;;;26.88;47.20;98757.28;4454147;32;34182;-89
2022/08/28 00:53:27;;;;;;;;;;;;;;;26.50;48.36;98754.25;4443476;32;34483;-88
2022/08/28 00:56:00;;;;;;;;;;;;;;;26.50;48.22;98743.63;4449990;32;34538;-86
2022/08/28 00:58:30;;;;;;;;;;;;;;;26.71;47.64;98736.16;4446402;32;35015;-87
2022/08/28 01:00:58;;;;;;;;;;;;;;;26.33;48.45;98731.28;4460132;32;34352;-87
2022/08/28 01:03:27;;;;;;;;;;;;;;;26.12;49.18;98728.94;4462271;32;34650;-86
2022/08/28 01:05:55;;;;;;;;;;;;;;;27.29;46.47;98729.97;4466998;32;34428;-85
2022/08/28 01:08:22;;;;;;;;;;;;;;;27.04;47.20;98727.94;4466832;32;33963;-87
2022/08/28 01:10:51;;;;;;;;;;;;;;;27.20;46.84;98730.53;4466258;32;34246;-88
2022/08/28 01:13:19;;;;;;;;;;;;;;;27.15;47.04;98721.03;4466631;32;34127;-87
2022/08/28 01:15:46;;;;;;;;;;;;;;;26.46;49.08;98732.31;4466538;32;33491;-88
2022/08/28 01:18:14;;;;;;;;;;;;;;;27.04;47.64;98727.94;4466190;32;35001;-89
2022/08/28 01:20:43;;;;;;;;;;;;;;;27.26;47.07;98733.69;4447923;32;33833;-86
2022/08/28 01:23:12;;;;;;;;;;;;;;;28.02;45.41;98738.59;4445890;32;34245;-87
2022/08/28 01:25:41;;;;;;;;;;;;;;;27.63;45.90;98747.34;4447494;32;33569;-89
2022/08/28 01:28:11;;;;;;;;;;;;;;;26.15;48.96;98751.81;4452540;32;33925;-89
2022/08/28 01:30:39;;;;;;;;;;;;;;;26.76;47.65;98758.03;4448151;32;34227;-87
2022/08/28 01:33:07;;;;;;;;;;;;;;;27.44;45.88;98747.66;4437033;32;34539;-87
2022/08/28 01:35:35;;;;;;;;;;;;;;;27.46;45.55;98755.53;4442973;32;33394;-89
2022/08/28 01:38:02;;;;;;;;;;;;;;;27.24;46.16;98750.69;4465852;32;32774;-90
2022/08/28 01:40:32;;;;;;;;;;;;;;;26.52;47.09;98768.31;4463334;32;34492;-90
2022/08/28 01:43:07;;;;;;;;;;;;;;;25.84;49.21;98761.53;4437007;32;33790;-92
2022/08/28 01:45:36;;;;;;;;;;;;;;;26.76;46.57;98766.00;4437117;32;33328;-89
2022/08/28 01:48:04;;;;;;;;;;;;;;;26.99;46.13;98757.50;4450898;32;34965;-91
2022/08/28 01:50:32;;;;;;;;;;;;;;;26.90;45.88;98758.91;4452191;32;34348;-91
2022/08/28 01:53:00;;;;;;;;;;;;;;;26.49;46.95;98758.72;4450984;32;34306;-90
2022/08/28 01:55:28;;;;;;;;;;;;;;;26.01;47.97;98757.91;4446027;32;33527;-90
2022/08/28 01:57:55;;;;;;;;;;;;;;;25.28;50.39;98767.28;4465005;32;35493;-87
2022/08/28 02:00:27;;;;;;;;;;;;;;;25.18;50.65;98751.81;4468092;32;34423;-92
2022/08/28 02:02:55;;;;;;;;;;;;;;;25.45;50.27;98743.31;4440017;32;34008;-92
2022/08/28 02:05:23;;;;;;;;;;;;;;;25.87;49.11;98739.25;4452795;32;33463;-92
2022/08/28 02:07:51;;;;;;;;;;;;;;;25.92;49.17;98738.06;4461243;32;35169;-89
2022/08/28 02:10:21;;;;;;;;;;;;;;;25.65;49.89;98729.81;4451880;32;34396;-92
2022/08/28 02:12:49;;;;;;;;;;;;;;;26.03;48.78;98721.50;4452740;32;34538;-84
2022/08/28 02:15:16;;;;;;;;;;;;;;;26.05;49.00;98724.06;4452754;32;33697;-91
2022/08/28 02:17:45;;;;;;;;;;;;;;;26.74;47.12;98725.34;4452597;32;35145;-91
2022/08/28 02:20:12;;;;;;;;;;;;;;;26.78;47.07;98733.03;4452210;32;33958;-86
2022/08/28 02:22:39;;;;;;;;;;;;;;;26.50;47.52;98722.38;4452683;32;34977;-92
2022/08/28 02:25:07;;;;;;;;;;;;;;;26.68;47.19;98714.13;4452855;32;33537;-90
2022/08/28 02:27:34;;;;;;;;;;;;;;;27.18;45.68;98696.03;4452593;32;33751;-90
2022/08/28 02:30:03;;;;;;;;;;;;;;;27.64;44.82;98701.94;4463917;32;34097;-91
2022/08/28 02:32:31;;;;;;;;;;;;;;;26.75;46.74;98697.81;4458528;32;34378;-90
2022/08/28 02:34:58;;;;;;;;;;;;;;;26.56;46.86;98712.22;4452465;32;34049;-91
2022/08/28 02:37:25;;;;;;;;;;;;;;;26.53;47.04;98704.44;4459468;32;34249;-92
2022/08/28 02:39:57;;;;;;;;;;;;;;;27.49;45.88;98697.63;4462420;32;34502;-91
2022/08/28 02:42:25;;;;;;;;;;;;;;;27.56;46.12;98696.28;4453128;32;33950;-91
2022/08/28 02:44:52;;;;;;;;;;;;;;;27.68;46.88;98705.28;4467675;32;33450;-92
2022/08/28 02:47:19;;;;;;;;;;;;;;;26.74;49.03;98714.72;4455224;32;35116;-93
2022/08/28 02:49:47;;;;;;;;;;;;;;;26.20;50.00;98726.69;4452343;32;34482;-94
2022/08/28 02:52:14;;;;;;;;;;;;;;;25.47;51.63;98742.31;4452516;32;35089;-92
2022/08/28 02:54:42;;;;;;;;;;;;;;;26.25;49.61;98750.31;4452530;32;33744;-90
2022/08/28 02:57:09;;;;;;;;;;;;;;;25.21;52.23;98746.38;4455757;32;35780;-89
2022/08/28 02:59:37;;;;;;;;;;;;;;;26.36;49.77;98736.41;4452403;32;34220;-92
2022/08/28 03:02:05;;;;;;;;;;;;;;;26.13;49.61;98730.63;4454009;32;33888;-92
2022/08/28 03:04:34;;;;;;;;;;;;;;;26.34;49.39;98730.34;4438486;32;33574;-91
2022/08/28 03:07:02;;;;;;;;;;;;;;;26.14;49.74;98743.00;4460398;32;33963;-92
2022/08/28 03:09:29;;;;;;;;;;;;;;;25.39;51.45;98748.97;4450331;32;35117;-93
2022/08/28 03:11:56;;;;;;;;;;;;;;;24.89;53.19;98757.78;4438482;32;34392;-92
2022/08/28 03:14:25;;;;;;;;;;;;;;;25.58;51.72;98755.00;4452671;32;33793;-92
2022/08/28 03:16:53;;;;;;;;;;;;;;;25.64;51.27;98746.66;4459778;32;34333;-91
2022/08/28 03:19:21;;;;;;;;;;;;;;;25.59;51.23;98735.47;4466659;32;34029;-90
2022/08/28 03:21:48;;;;;;;;;;;;;;;26.03;50.40;98745.41;4452603;32;34854;-91
2022/08/28 03:24:18;;;;;;;;;;;;;;;27.10;47.09;98744.37;4452087;32;33737;-89
2022/08/28 03:26:45;;;;;;;;;;;;;;;26.38;49.23;98745.19;4459077;32;34243;-91
2022/08/28 03:29:13;;;;;;;;;;;;;;;25.99;50.48;98743.00;4467122;32;35284;-92
2022/08/28 03:31:40;;;;;;;;;;;;;;;26.46;48.97;98742.09;4467533;32;34571;-90
2022/08/28 03:34:08;;;;;;;;;;;;;;;26.64;48.62;98736.53;4467900;32;32930;-90
2022/08/28 03:36:35;;;;;;;;;;;;;;;26.17;50.02;98731.31;4461862;32;34212;-91
2022/08/28 03:39:04;;;;;;;;;;;;;;;27.00;47.84;98737.91;4451805;32;35279;-91
2022/08/28 03:41:31;;;;;;;;;;;;;;;26.70;47.89;98737.97;4452493;32;34395;-93
2022/08/28 03:43:59;;;;;;;;;;;;;;;27.22;46.92;98733.97;4452503;32;33544;-92
2022/08/28 03:46:31;;;;;;;;;;;;;;;27.34;46.46;98728.72;4456280;32;33213;-93
2022/08/28 03:48:59;;;;;;;;;;;;;;;26.85;47.46;98729.06;4454157;32;34345;-93
2022/08/28 03:51:28;;;;;;;;;;;;;;;26.83;47.36;98720.34;4453211;32;34488;-92
2022/08/28 03:53:59;;;;;;;;;;;;;;;26.69;47.18;98722.97;4467431;32;33843;-92
2022/08/28 03:56:29;;;;;;;;;;;;;;;26.72;47.28;98721.94;4462099;32;35131;-91
2022/08/28 03:58:59;;;;;;;;;;;;;;;27.14;46.10;98714.00;4451994;32;34388;-92
2022/08/28 04:01:26;;;;;;;;;;;;;;;27.72;44.27;98721.91;4452189;32;34014;-92
2022/08/28 04:03:54;;;;;;;;;;;;;;;27.80;44.38;98715.16;4453107;32;33064;-90
2022/08/28 04:06:22;;;;;;;;;;;;;;;28.15;43.59;98714.66;4455360;32;34074;-92
2022/08/28 04:08:49;;;;;;;;;;;;;;;28.03;43.87;98715.47;4465642;32;34084;-92
2022/08/28 04:11:17;;;;;;;;;;;;;;;28.23;43.26;98711.50;4467380;32;34605;-92
2022/08/28 04:13:44;;;;;;;;;;;;;;;28.46;42.60;98713.50;4466788;32;33607;-93
2022/08/28 04:16:12;;;;;;;;;;;;;;;28.36;42.80;98707.88;4467617;32;34673;-92
2022/08/28 04:18:40;;;;;;;;;;;;;;;28.88;42.11;98714.16;4445999;32;34100;-92
2022/08/28 04:21:11;;;;;;;;;;;;;;;29.27;41.11;98710.53;4437359;32;35133;-92
2022/08/28 04:23:38;;;;;;;;;;;;;;;29.30;41.15;98709.47;4437828;32;33750;-92
2022/08/28 04:26:06;;;;;;;;;;;;;;;29.49;40.97;98712.53;4441341;32;35449;-94
2022/08/28 04:28:35;;;;;;;;;;;;;;;29.41;40.87;98709.56;4444235;32;34206;-91
2022/08/28 04:31:02;;;;;;;;;;;;;;;28.97;41.95;98713.50;4467389;32;34238;-93
2022/08/28 04:33:30;;;;;;;;;;;;;;;29.34;41.16;98714.47;4447448;32;34362;-92
2022/08/28 04:35:59;;;;;;;;;;;;;;;29.57;40.57;98719.97;4424448;32;858790;-92
2022/08/28 04:38:26;;;;;;;;;;;;;;;29.38;41.15;98725.78;4443571;32;33904;-93
2022/08/28 04:40:53;;;;;;;;;;;;;;;29.64;40.79;98733.78;4467453;32;34069;-91
2022/08/28 04:43:23;;;;;;;;;;;;;;;29.34;41.40;98730.50;4466503;32;33186;-92
2022/08/28 04:45:50;;;;;;;;;;;;;;;29.57;41.07;98731.53;4459937;32;34927;-92
2022/08/28 04:48:18;;;;;;;;;;;;;;;29.66;40.59;98731.84;4455829;32;34403;-92
2022/08/28 04:50:46;;;;;;;;;;;;;;;29.79;39.53;98736.19;4439657;32;35292;-93
2022/08/28 04:53:14;;;;;;;;;;;;;;;29.86;39.85;98733.94;4440910;32;33191;-92
2022/08/28 04:55:43;;;;;;;;;;;;;;;29.62;39.39;98736.53;4453106;32;34045;-92
2022/08/28 04:58:21;;;;;;;;;;;;;;;29.46;39.48;98734.09;4449842;32;35166;-93
2022/08/28 05:00:51;;;;;;;;;;;;;;;29.36;39.61;98741.09;4451654;32;34089;-91
2022/08/28 05:03:19;;;;;;;;;;;;;;;29.97;38.71;98743.84;4441072;32;32931;-93
2022/08/28 05:05:48;;;;;;;;;;;;;;;29.84;38.83;98746.53;4452987;32;34301;-92
2022/08/28 05:08:16;;;;;;;;;;;;;;;29.99;38.40;98749.91;4449226;32;34338;-92
2022/08/28 05:10:43;;;;;;;;;;;;;;;30.12;38.13;98753.41;4451520;32;34579;-93
2022/08/28 05:13:11;;;;;;;;;;;;;;;30.50;38.35;98761.25;4454280;32;33436;-92
2022/08/28 05:15:39;;;;;;;;;;;;;;;30.69;37.80;98758.03;4466760;32;34284;-92
2022/08/28 05:18:06;;;;;;;;;;;;;;;30.02;38.63;98758.56;4464010;32;34744;-92
2022/08/28 05:20:37;;;;;;;;;;;;;;;31.07;36.61;98756.06;4451013;32;35221;-92
2022/08/28 05:23:05;;;;;;;;;;;;;;;30.59;37.55;98748.97;4437262;32;33372;-93
2022/08/28 05:25:35;;;;;;;;;;;;;;;31.06;36.99;98754.34;4451136;32;35021;-93
2022/08/28 05:28:03;;;;;;;;;;;;;;;31.24;36.65;98743.03;4452734;32;34408;-92
2022/08/28 05:30:31;;;;;;;;;;;;;;;30.20;38.53;98736.81;4452162;32;34115;-90
2022/08/28 05:32:59;;;;;;;;;;;;;;;31.31;36.91;98739.91;4466203;32;34494;-92
2022/08/28 05:35:26;;;;;;;;;;;;;;;31.35;36.36;98739.53;4468672;32;34374;-92
2022/08/28 05:37:54;;;;;;;;;;;;;;;31.01;36.89;98736.81;4467528;32;35277;-92
2022/08/28 05:40:21;;;;;;;;;;;;;;;30.86;37.51;98738.00;4453069;32;34532;-92
2022/08/28 05:42:48;;;;;;;;;;;;;;;31.35;36.08;98734.19;4453052;32;33416;-92
2022/08/28 05:45:16;;;;;;;;;;;;;;;31.53;36.50;98726.50;4438839;32;34239;-91
2022/08/28 05:47:43;;;;;;;;;;;;;;;31.99;35.13;98744.22;4453262;32;34341;-91
2022/08/28 05:50:12;;;;;;;;;;;;;;;31.58;36.18;98737.69;4452665;32;34277;-91
2022/08/28 05:52:41;;;;;;;;;;;;;;;31.37;36.59;98747.47;4453034;32;33515;-93
2022/08/28 05:55:09;;;;;;;;;;;;;;;31.66;36.13;98737.91;4452618;32;34934;-92
2022/08/28 05:57:37;;;;;;;;;;;;;;;32.05;36.14;98742.84;4452896;32;35038;-91
2022/08/28 06:00:04;;;;;;;;;;;;;;;32.06;34.81;98741.91;4438826;32;34499;-92
2022/08/28 06:02:33;;;;;;;;;;;;;;;30.98;36.69;98750.44;4439114;32;34510;-92
2022/08/28 06:05:01;;;;;;;;;;;;;;;31.56;35.27;98749.50;4452216;32;34304;-92
2022/08/28 06:07:28;;;;;;;;;;;;;;;30.76;37.14;98753.06;4452538;32;35169;-91
2022/08/28 06:09:56;;;;;;;;;;;;;;;29.04;39.84;98760.19;4452801;32;35312;-91
2022/08/28 06:12:24;;;;;;;;;;;;;;;30.27;37.88;98754.94;4452768;32;33380;-91
2022/08/28 06:14:51;;;;;;;;;;;;;;;30.75;37.15;98754.88;4452359;32;34904;-91
2022/08/28 06:17:22;;;;;;;;;;;;;;;30.26;38.11;98755.91;4452354;32;34127;-91
2022/08/28 06:19:50;;;;;;;;;;;;;;;31.05;36.63;98758.00;4438320;32;34285;-92
2022/08/28 06:22:17;;;;;;;;;;;;;;;30.87;37.03;98760.25;4452551;32;34340;-86
2022/08/28 06:24:45;;;;;;;;;;;;;;;30.80;36.54;98765.25;4452452;32;33812;-92
2022/08/28 06:27:12;;;;;;;;;;;;;;;30.97;36.36;98766.63;4452774;32;34449;-91
2022/08/28 06:29:39;;;;;;;;;;;;;;;31.33;36.51;98764.72;4452658;32;34411;-91
2022/08/28 06:32:07;;;;;;;;;;;;;;;30.91;36.21;98773.31;4452528;32;34422;-91
2022/08/28 06:34:35;;;;;;;;;;;;;;;31.62;34.95;98775.81;4456033;32;34825;-91
2022/08/28 06:37:02;;;;;;;;;;;;;;;30.70;37.26;98773.09;4460469;32;33961;-91
2022/08/28 06:39:29;;;;;;;;;;;;;;;31.70;35.72;98781.41;4453738;32;34467;-90
2022/08/28 06:41:57;;;;;;;;;;;;;;;31.32;36.01;98782.63;4452711;32;34359;-91
2022/08/28 06:44:24;;;;;;;;;;;;;;;31.06;36.26;98784.62;4459154;32;34942;-91
2022/08/28 06:46:52;;;;;;;;;;;;;;;31.55;35.52;98777.28;4467976;32;35405;-91
2022/08/28 06:49:20;;;;;;;;;;;;;;;31.09;36.53;98780.87;4468127;32;34424;-90
2022/08/28 06:51:47;;;;;;;;;;;;;;;31.47;35.99;98780.56;4453912;32;32978;-91
2022/08/28 06:54:16;;;;;;;;;;;;;;;32.15;35.10;98790.25;4452870;32;33924;-90
2022/08/28 06:56:49;;;;;;;;;;;;;;;32.56;33.99;98785.16;4439119;32;34368;-91
2022/08/28 06:59:17;;;;;;;;;;;;;;;31.99;34.46;98792.50;4438582;32;34830;-90
2022/08/28 07:01:44;;;;;;;;;;;;;;;31.97;35.17;98795.31;4452277;32;34372;-90
2022/08/28 07:04:13;;;;;;;;;;;;;;;32.69;33.06;98802.78;4465654;32;34035;-90
2022/08/28 07:06:44;;;;;;;;;;;;;;;32.41;33.86;98801.53;4468027;32;33905;-91
2022/08/28 07:09:13;;;;;;;;;;;;;;;31.29;35.41;98808.78;4454634;32;34265;-90
2022/08/28 07:11:42;;;;;;;;;;;;;;;32.35;33.36;98804.72;4459994;32;33931;-90
2022/08/28 07:14:09;;;;;;;;;;;;;;;32.04;33.66;98802.84;4460050;32;34190;-90
2022/08/28 07:16:37;;;;;;;;;;;;;;;32.54;34.12;98805.88;4458105;32;34234;-90
2022/08/28 07:19:05;;;;;;;;;;;;;;;32.62;33.61;98811.47;4458202;32;34397;-90
2022/08/28 07:21:33;;;;;;;;;;;;;;;32.88;33.30;98812.81;4468083;32;34442;-90
2022/08/28 07:24:05;;;;;;;;;;;;;;;32.79;32.93;98810.91;4468126;32;35138;-90
2022/08/28 07:26:33;;;;;;;;;;;;;;;33.04;32.79;98812.37;4456308;32;34122;-91
2022/08/28 07:29:03;;;;;;;;;;;;;;;31.92;34.65;98818.94;4452536;32;34764;-90
2022/08/28 07:31:41;;;;;;;;;;;;;;;32.04;34.22;98808.19;4451839;32;33539;-90
2022/08/28 07:34:09;;;;;;;;;;;;;;;32.07;33.88;98827.56;4452350;32;34980;-91
2022/08/28 07:36:38;;;;;;;;;;;;;;;33.21;32.24;98823.50;4423309;32;33898;-90
2022/08/28 07:39:05;;;;;;;;;;;;;;;31.11;37.78;98827.16;4448078;32;34501;-91
2022/08/28 07:41:34;;;;;;;;;;;;;;;31.47;37.60;98824.28;4449988;32;33746;-93
2022/08/28 07:46:47;;;;;;;;;;;;;;;32.56;36.39;98828.09;4436475;32;34046;-90
2022/08/28 07:49:15;;;;;;;;;;;;;;;31.22;38.74;98824.50;4435423;32;34980;-90
2022/08/28 07:51:43;;;;;;;;;;;;;;;32.03;37.40;98822.59;4450311;32;33728;-90
2022/08/28 07:54:13;;;;;;;;;;;;;;;32.36;36.28;98816.31;4451446;32;34196;-91
2022/08/28 07:56:44;;;;;;;;;;;;;;;32.87;35.51;98821.84;4450976;32;34333;-90
2022/08/28 07:59:12;;;;;;;;;;;;;;;32.81;35.44;98835.78;4451861;32;33855;-91
2022/08/28 08:01:45;;;;;;;;;;;;;;;32.76;35.88;98835.31;4452197;32;33675;-90
2022/08/28 08:04:14;;;;;;;;;;;;;;;32.07;37.35;98834.78;4443273;32;34898;-95
2022/08/28 08:06:42;;;;;;;;;;;;;;;32.29;36.57;98840.09;4448819;32;35275;-94
2022/08/28 08:09:11;;;;;;;;;;;;;;;32.04;37.12;98843.06;4452214;32;34309;-95
2022/08/28 08:11:39;;;;;;;;;;;;;;;31.86;37.61;98845.38;4440199;32;34337;-94
2022/08/28 08:14:06;;;;;;;;;;;;;;;32.81;35.86;98843.84;4442881;32;34228;-93
2022/08/28 08:16:34;;;;;;;;;;;;;;;33.10;34.57;98840.53;4451948;32;35179;-94
2022/08/28 08:19:02;;;;;;;;;;;;;;;32.30;36.73;98839.09;4451716;32;34387;-94
2022/08/28 08:21:30;;;;;;;;;;;;;;;32.67;35.74;98844.16;4445399;32;33412;-95
2022/08/28 08:23:57;;;;;;;;;;;;;;;32.98;35.59;98846.97;4438470;32;35101;-95
2022/08/28 08:26:26;;;;;;;;;;;;;;;33.08;35.10;98842.53;4448435;32;34298;-94
2022/08/28 08:28:54;;;;;;;;;;;;;;;32.30;36.97;98840.94;4436257;32;34094;-92
2022/08/28 08:31:31;;;;;;;;;;;;;;;33.45;35.07;98844.69;4435202;32;34399;-92
2022/08/28 08:34:00;;;;;;;;;;;;;;;33.10;35.89;98843.22;4440111;32;35440;-94
2022/08/28 08:36:30;;;;;;;;;;;;;;;32.85;36.67;98847.97;4446619;32;35116;-92
2022/08/28 08:38:58;;;;;;;;;;;;;;;32.63;35.93;98845.38;4450408;32;34560;-93
2022/08/28 08:41:26;;;;;;;;;;;;;;;32.67;35.84;98849.53;4450533;32;33121;-93
2022/08/28 08:44:01;;;;;;;;;;;;;;;33.67;34.59;98849.94;4450863;32;33942;-92
2022/08/28 08:46:34;;;;;;;;;;;;;;;33.62;32.79;98844.97;4450391;32;34091;-93
2022/08/28 08:49:02;;;;;;;;;;;;;;;33.55;33.69;98851.03;4437045;32;34336;-82
2022/08/28 08:51:37;;;;;;;;;;;;;;;32.90;34.36;98852.94;4436366;32;34592;-91
2022/08/28 08:54:05;;;;;;;;;;;;;;;32.99;34.13;98845.97;4434852;32;35137;-92
2022/08/28 08:56:33;;;;;;;;;;;;;;;33.08;33.83;98845.22;4434606;32;34815;-92
2022/08/28 08:59:01;;;;;;;;;;;;;;;33.31;33.35;98846.78;4434553;32;34736;-91
2022/08/28 09:01:28;;;;;;;;;;;;;;;33.55;32.92;98851.03;4443436;32;33763;-93
2022/08/28 09:04:01;;;;;;;;;;;;;;;33.00;34.08;98840.50;4450720;32;34290;-91
2022/08/28 09:06:55;;;;;;;;;;;;;;;32.56;34.05;98846.88;4435843;32;34181;-91
2022/08/28 09:09:27;;;;;;;;;;;;;;;32.66;35.71;98861.25;4425109;32;34127;-90
2022/08/28 09:11:55;;;;;;;;;;;;;;;33.53;32.46;98855.69;4436407;32;34442;-93
2022/08/28 09:14:30;;;;;;;;;;;;;;;32.70;34.61;98862.69;4436905;32;34245;-91
2022/08/28 09:16:57;;;;;;;;;;;;;;;32.20;35.92;98862.28;4444023;32;34226;-91
2022/08/28 09:19:25;;;;;;;;;;;;;;;32.65;35.03;98859.50;4439798;32;33924;-92
2022/08/28 09:21:52;;;;;;;;;;;;;;;32.12;35.74;98862.91;4436264;32;34154;-92
2022/08/28 09:24:23;;;;;;;;;;;;;;;32.08;35.40;98863.28;4437392;32;34160;-92
2022/08/28 09:26:57;;;;;;;;;;;;;;;31.73;36.24;98866.94;4450058;32;34451;-89
2022/08/28 09:29:29;;;;;;;;;;;;;;;32.61;34.45;98864.28;4437406;32;35317;-93
2022/08/28 09:31:56;;;;;;;;;;;;;;;32.37;35.29;98860.94;4437416;32;33729;-91
2022/08/28 09:34:25;;;;;;;;;;;;;;;32.81;33.86;98867.16;4438741;32;33839;-91
2022/08/28 09:36:53;;;;;;;;;;;;;;;32.61;34.85;98866.97;4450012;32;34726;-91
2022/08/28 09:39:24;;;;;;;;;;;;;;;32.34;35.06;98856.66;4468482;32;35085;-91
2022/08/28 09:44:48;;;;;;;;;;;;;;;32.97;35.37;98870.28;4463752;32;33928;-93
2022/08/28 09:47:36;;;;;;;;;;;;;;;33.29;32.19;98870.22;4454292;32;34787;-91
2022/08/28 09:50:19;;;;;;;;;;;;;;;32.19;33.84;98871.31;4468054;32;34939;-90
2022/08/28 09:52:47;;;;;;;;;;;;;;;33.36;32.13;98867.84;4466399;32;33435;-82
2022/08/28 09:55:18;;;;;;;;;;;;;;;33.99;30.88;98862.44;4439689;32;34969;-86
2022/08/28 09:57:46;;;;;;;;;;;;;;;33.52;31.66;98864.72;4452808;32;35182;-90
2022/08/28 10:00:13;;;;;;;;;;;;;;;33.95;31.13;98859.13;4438690;32;34651;-90
2022/08/28 10:02:44;;;;;;;;;;;;;;;34.58;29.20;98856.19;4452628;32;33675;-87
2022/08/28 10:05:14;;;;;;;;;;;;;;;34.39;29.88;98865.91;4467480;32;33735;-90
2022/08/28 10:07:45;;;;;;;;;;;;;;;34.01;29.75;98863.13;4454831;32;34408;-91
2022/08/28 10:10:40;;;;;;;;;;;;;;;34.06;29.13;98858.22;4452664;32;34309;-91
2022/08/28 10:13:18;;;;;;;;;;;;;;;34.54;28.91;98854.78;4468158;32;33483;-90
2022/08/28 10:16:05;;;;;;;;;;;;;;;34.98;27.68;98857.91;4438774;32;34182;-90
2022/08/28 10:18:56;;;;;;;;;;;;;;;34.47;29.57;98856.28;4453768;32;34134;-90
2022/08/28 10:21:25;;;;;;;;;;;;;;;34.88;29.81;98862.44;4458576;32;34871;-84
2022/08/28 10:23:58;;;;;;;;;;;;;;;34.77;28.20;98852.66;4474408;32;33411;-91
2022/08/28 10:26:35;;;;;;;;;;;;;;;35.25;27.55;98847.25;4463376;32;35128;-91
2022/08/28 10:29:21;;;;;;;;;;;;;;;34.64;28.54;98842.19;4450649;32;34483;-90
2022/08/28 10:32:04;;;;;;;;;;;;;;;34.22;28.90;98846.91;4464515;32;33873;-91
2022/08/28 10:35:10;;;;;;;;;;;;;;;33.86;30.46;98850.03;4438593;32;33718;-93
2022/08/28 10:37:53;;;;;;;;;;;;;;;34.56;29.00;98848.28;4403990;32;34214;-90
2022/08/28 10:40:22;;;;;;;;;;;;;;;34.92;28.85;98845.84;4404067;32;33900;-93
2022/08/28 10:43:00;;;;;;;;;;;;;;;33.98;30.13;98836.47;4434558;32;34030;-89
2022/08/28 10:45:29;;;;;;;;;;;;;;;34.38;29.30;98837.31;4454559;32;33497;-92
2022/08/28 10:48:00;;;;;;;;;;;;;;;34.20;30.18;98836.28;4454314;32;33966;-91
2022/08/28 10:50:37;;;;;;;;;;;;;;;34.99;29.05;98832.66;4453859;32;34295;-89
2022/08/28 10:53:06;;;;;;;;;;;;;;;34.66;30.58;98837.50;4442214;32;34558;-93
2022/08/28 10:55:38;;;;;;;;;;;;;;;35.33;28.76;98835.75;4444324;32;33583;-87
2022/08/28 10:58:06;;;;;;;;;;;;;;;35.49;28.09;98833.31;4439858;32;35616;-89
2022/08/28 11:01:03;;;;;;;;;;;;;;;34.48;30.76;98831.09;4452775;32;34274;-94
2022/08/28 11:03:30;;;;;;;;;;;;;;;34.98;28.51;98833.66;4438672;32;34578;-93
2022/08/28 11:06:04;;;;;;;;;;;;;;;34.61;28.00;98837.06;4439052;32;33956;-90
2022/08/28 11:08:32;;;;;;;;;;;;;;;34.18;29.21;98835.59;4448327;32;34212;-92
2022/08/28 11:11:00;;;;;;;;;;;;;;;34.59;29.11;98834.53;4468244;32;33827;-92
2022/08/28 11:13:58;;;;;;;;;;;;;;;34.54;28.59;98839.47;4450476;32;34335;-92
2022/08/28 11:16:28;;;;;;;;;;;;;;;33.95;28.28;98844.84;4438410;32;33909;-92
2022/08/28 11:19:16;;;;;;;;;;;;;;;35.02;29.20;98830.56;4464075;32;34484;-92
2022/08/28 11:21:45;;;;;;;;;;;;;;;34.95;28.68;98833.94;4467805;32;34195;-92
2022/08/28 11:24:25;;;;;;;;;;;;;;;35.10;29.23;98827.16;4453935;32;34407;-94
2022/08/28 11:27:08;;;;;;;;;;;;;;;34.39;28.95;98828.22;4447480;32;33180;-89
2022/08/28 11:29:55;;;;;;;;;;;;;;;35.15;28.94;98835.63;4443166;32;34374;-92
2022/08/28 11:32:46;;;;;;;;;;;;;;;35.28;28.92;98832.66;4452974;32;35198;-91
2022/08/28 11:35:20;;;;;;;;;;;;;;;35.66;27.02;98837.09;4462313;32;34781;-89
2022/08/28 11:37:48;;;;;;;;;;;;;;;35.30;28.55;98828.78;4451407;32;33438;-91
2022/08/28 11:40:17;;;;;;;;;;;;;;;35.36;27.57;98831.91;4451641;32;34338;-90
2022/08/28 11:42:47;;;;;;;;;;;;;;;34.65;27.51;98832.25;4437840;32;34168;-88
2022/08/28 11:45:40;;;;;;;;;;;;;;;34.72;26.97;98826.16;4441975;32;34031;-90
2022/08/28 11:48:23;;;;;;;;;;;;;;;33.94;28.07;98833.19;4451246;32;33184;-93
2022/08/28 11:51:01;;;;;;;;;;;;;;;34.18;27.65;98835.59;4460484;32;33460;-95
2022/08/28 11:53:31;;;;;;;;;;;;;;;34.29;28.13;98827.37;4451385;32;35161;-88
2022/08/28 11:55:59;;;;;;;;;;;;;;;33.82;28.25;98821.69;4448743;32;34336;-91
2022/08/28 11:58:41;;;;;;;;;;;;;;;34.12;27.58;98822.66;4464845;32;33488;-90
2022/08/28 12:01:10;;;;;;;;;;;;;;;33.98;28.50;98823.03;4467240;32;34773;-92
2022/08/28 12:03:53;;;;;;;;;;;;;;;34.68;29.06;98827.44;4464275;32;34027;-91
2022/08/28 12:06:39;;;;;;;;;;;;;;;34.15;30.42;98819.72;4475147;32;35160;-89
2022/08/28 12:09:06;;;;;;;;;;;;;;;34.38;30.11;98820.31;4472646;32;33584;-93
2022/08/28 12:11:39;;;;;;;;;;;;;;;34.42;30.38;98813.66;4483146;32;35014;-89
2022/08/28 12:14:08;;;;;;;;;;;;;;;35.14;28.42;98809.69;4478353;32;35367;-88
2022/08/28 12:16:54;;;;;;;;;;;;;;;34.88;28.85;98808.56;4467404;32;34242;-92
2022/08/28 12:19:37;;;;;;;;;;;;;;;33.90;29.52;98816.47;4463815;32;34414;-94
2022/08/28 12:22:25;;;;;;;;;;;;;;;33.89;29.96;98813.94;4461157;32;35056;-95
2022/08/28 12:24:57;;;;;;;;;;;;;;;34.03;29.83;98804.69;4452529;32;33814;-94
2022/08/28 12:27:24;;;;;;;;;;;;;;;33.93;30.15;98815.38;4440922;32;34621;-92
2022/08/28 12:29:55;;;;;;;;;;;;;;;34.47;28.98;98814.06;4467740;32;33604;-95
2022/08/28 12:32:35;;;;;;;;;;;;;;;34.33;29.27;98815.34;4467790;32;34095;-93
2022/08/28 12:35:13;;;;;;;;;;;;;;;33.85;30.22;98807.13;4461216;32;35149;-95
2022/08/28 12:37:52;;;;;;;;;;;;;;;35.24;28.75;98812.37;4446759;32;35140;-95
2022/08/28 12:40:27;;;;;;;;;;;;;;;34.66;29.54;98813.25;4467681;32;33679;-94
2022/08/28 12:42:59;;;;;;;;;;;;;;;33.33;32.38;98809.00;4452727;32;33627;-96
2022/08/28 12:45:27;;;;;;;;;;;;;;;34.04;31.38;98801.00;4453874;32;34085;-93
2022/08/28 12:47:55;;;;;;;;;;;;;;;34.37;29.63;98811.37;4459033;32;34399;-95
2022/08/28 12:50:24;;;;;;;;;;;;;;;34.98;28.52;98804.03;4454094;32;33475;-92
2022/08/28 12:52:54;;;;;;;;;;;;;;;35.34;28.46;98802.41;4455026;32;34819;-90
2022/08/28 12:55:21;;;;;;;;;;;;;;;34.77;29.73;98793.41;4461587;32;33975;-90
2022/08/28 12:57:51;;;;;;;;;;;;;;;35.30;29.07;98801.00;4440265;32;34114;-93
2022/08/28 13:00:23;;;;;;;;;;;;;;;34.88;29.29;98801.34;4452868;32;33743;-95
2022/08/28 13:02:52;;;;;;;;;;;;;;;34.78;29.77;98795.97;4438875;32;34381;-94
2022/08/28 13:05:29;;;;;;;;;;;;;;;34.65;30.25;98800.78;4453453;32;34542;-96
2022/08/28 13:07:57;;;;;;;;;;;;;;;34.45;30.76;98802.59;4454644;32;34113;-94
2022/08/28 13:10:29;;;;;;;;;;;;;;;34.12;30.13;98793.06;4453556;32;34412;-95